createdAt,value
2023-02-11T00:04:51.624Z,101209.31
2023-02-11T00:09:56.482Z,101212.93
2023-02-11T00:15:01.893Z,101204.69
2023-02-11T00:20:08.234Z,101194.46
2023-02-11T00:25:13.413Z,101188.92
2023-02-11T00:30:17.662Z,101179.85
2023-02-11T00:35:22.123Z,101169.52
2023-02-11T00:40:27.213Z,101163.70
2023-02-11T00:45:31.801Z,101163.33
2023-02-11T00:50:37.139Z,101163.73
2023-02-11T00:55:41.556Z,101149.64
2023-02-11T01:00:45.589Z,101131.42
2023-02-11T01:05:50.879Z,101108.00
2023-02-11T01:10:57.078Z,101089.54
2023-02-11T01:16:00.657Z,101079.55
2023-02-11T01:21:06.081Z,101061.95
2023-02-11T01:26:10.585Z,101050.54
2023-02-11T01:31:15.595Z,101037.52
2023-02-11T01:36:19.394Z,101036.80
2023-02-11T01:41:23.875Z,101033.61
2023-02-11T01:46:34.464Z,101029.69
2023-02-11T01:51:45.420Z,101035.20
2023-02-11T01:57:12.916Z,101020.41
2023-02-11T02:02:23.071Z,100998.55
2023-02-11T02:07:43.941Z,101004.09
2023-02-11T02:12:48.735Z,100986.89
2023-02-11T02:18:01.852Z,100963.56
2023-02-11T02:23:31.594Z,100959.91
2023-02-11T02:28:50.935Z,100961.10
2023-02-11T02:34:16.499Z,100948.02
2023-02-11T02:39:30.604Z,100931.30
2023-02-11T02:44:35.491Z,100926.77
2023-02-11T02:49:39.244Z,100941.66
2023-02-11T02:55:09.900Z,100970.73
2023-02-11T03:00:35.384Z,100964.79
2023-02-11T03:06:05.287Z,100888.80
2023-02-11T03:11:11.658Z,100821.81
2023-02-11T03:16:25.882Z,100854.48
2023-02-11T03:21:33.365Z,100870.04
2023-02-11T03:26:55.099Z,100882.92
2023-02-11T03:32:33.494Z,100880.91
2023-02-11T03:37:46.158Z,100873.07
2023-02-11T03:43:04.161Z,100875.40
2023-02-11T03:48:21.396Z,100868.48
2023-02-11T03:53:25.481Z,100857.91
2023-02-11T03:58:29.918Z,100831.37
2023-02-11T04:03:34.472Z,100806.53
2023-02-11T04:08:38.866Z,100805.52
2023-02-11T04:13:42.126Z,100804.90
2023-02-11T04:18:46.452Z,100796.55
2023-02-11T04:23:51.146Z,100778.73
2023-02-11T04:28:56.163Z,100762.45
2023-02-11T04:34:01.442Z,100762.90
2023-02-11T04:39:05.984Z,100748.58
2023-02-11T04:44:11.384Z,100739.34
2023-02-11T04:49:16.693Z,100744.23
2023-02-11T04:54:20.756Z,100748.45
2023-02-11T04:59:24.957Z,100746.96
2023-02-11T05:04:28.850Z,100741.22
2023-02-11T05:09:33.616Z,100726.36
2023-02-11T05:14:38.467Z,100725.25
2023-02-11T05:19:43.384Z,100723.35
2023-02-11T05:24:47.742Z,100716.21
2023-02-11T05:29:52.500Z,100700.98
2023-02-11T05:34:57.394Z,100695.60
2023-02-11T05:40:02.299Z,100697.04
2023-02-11T05:45:07.181Z,100682.29
2023-02-11T05:50:10.778Z,100679.06
2023-02-11T05:55:14.697Z,100675.94
2023-02-11T06:00:19.299Z,100677.25
2023-02-11T06:05:23.704Z,100675.79
2023-02-11T06:10:28.517Z,100674.67
2023-02-11T06:15:33.015Z,100673.03
2023-02-11T06:20:41.699Z,100662.61
2023-02-11T06:25:46.314Z,100655.08
2023-02-11T06:30:51.163Z,100650.45
2023-02-11T06:35:56.735Z,100647.64
2023-02-11T06:41:01.626Z,100637.34
2023-02-11T06:46:07.489Z,100625.11
2023-02-11T06:51:14.863Z,100624.46
2023-02-11T06:56:22.580Z,100620.89
2023-02-11T07:01:28.914Z,100615.86
2023-02-11T07:06:33.791Z,100619.13
2023-02-11T07:11:38.199Z,100610.70
2023-02-11T07:16:42.687Z,100613.23
2023-02-11T07:21:46.303Z,100631.84
2023-02-11T07:26:50.965Z,100643.75
2023-02-11T07:31:55.369Z,100647.83
2023-02-11T07:37:00.420Z,100651.80
2023-02-11T07:42:06.431Z,100646.41
2023-02-11T07:47:10.994Z,100628.09
2023-02-11T07:52:15.384Z,100625.42
2023-02-11T07:57:19.639Z,100616.55
2023-02-11T08:02:24.496Z,100612.70
2023-02-11T08:07:30.290Z,100617.24
2023-02-11T08:12:35.130Z,100623.71
2023-02-11T08:17:39.892Z,100625.59
2023-02-11T08:22:46.510Z,100617.46
2023-02-11T08:27:51.971Z,100615.21
2023-02-11T08:32:57.863Z,100604.31
2023-02-11T08:38:02.442Z,100599.08
2023-02-11T08:43:08.201Z,100596.05
2023-02-11T08:48:12.947Z,100596.07
2023-02-11T08:53:16.881Z,100594.86
2023-02-11T08:58:22.089Z,100581.12
2023-02-11T09:03:26.472Z,100564.88
2023-02-11T09:08:30.758Z,100561.25
2023-02-11T09:13:35.225Z,100553.25
2023-02-11T09:18:39.021Z,100537.75
2023-02-11T09:23:45.765Z,100526.48
2023-02-11T09:28:50.260Z,100518.83
2023-02-11T09:33:57.682Z,100507.11
2023-02-11T09:39:02.672Z,100490.11
2023-02-11T09:44:11.366Z,100481.19
2023-02-11T09:49:23.626Z,100464.23
2023-02-11T09:54:53.141Z,100481.00
2023-02-11T09:59:58.173Z,100476.90
2023-02-11T10:05:13.849Z,100499.73
2023-02-11T10:10:36.338Z,100505.70
2023-02-11T10:15:53.213Z,100514.95
2023-02-11T10:21:01.453Z,100516.70
2023-02-11T10:26:17.376Z,100503.73
2023-02-11T10:31:42.342Z,100489.06
2023-02-11T10:36:47.357Z,100482.04
2023-02-11T10:41:59.702Z,100476.63
2023-02-11T10:47:26.899Z,100485.05
2023-02-11T10:52:31.590Z,100494.20
2023-02-11T10:57:45.129Z,100475.00
2023-02-11T11:02:59.741Z,100490.62
2023-02-11T11:08:09.827Z,100472.64
2023-02-11T11:13:35.926Z,100445.25
2023-02-11T11:18:45.554Z,100439.79
2023-02-11T11:23:55.214Z,100436.38
2023-02-11T11:29:14.275Z,100433.41
2023-02-11T11:34:34.136Z,100363.91
2023-02-11T11:39:41.140Z,100366.11
2023-02-11T11:45:05.058Z,100379.46
2023-02-11T11:50:25.624Z,100386.14
2023-02-11T11:55:59.595Z,100433.92
2023-02-11T12:01:07.672Z,100459.86
2023-02-11T12:06:19.126Z,100468.48
2023-02-11T12:11:39.623Z,100476.25
2023-02-11T12:17:06.574Z,100484.67
2023-02-11T12:22:24.466Z,100481.55
2023-02-11T12:27:50.167Z,100459.92
2023-02-11T12:33:20.376Z,100447.45
2023-02-11T12:38:44.528Z,100449.05
2023-02-11T12:43:49.544Z,100445.17
2023-02-11T12:49:18.177Z,100433.75
2023-02-11T12:54:34.992Z,100431.27
2023-02-11T13:00:09.769Z,100429.73
2023-02-11T13:05:34.242Z,100424.33
2023-02-11T13:10:43.264Z,100414.63
2023-02-11T13:16:10.578Z,100425.91
2023-02-11T13:21:26.326Z,100424.45
2023-02-11T13:26:49.882Z,100425.89
2023-02-11T13:31:57.549Z,100423.77
2023-02-11T13:37:02.547Z,100407.20
2023-02-11T13:42:16.767Z,100422.38
2023-02-11T13:47:42.659Z,100427.99
2023-02-11T13:52:48.453Z,100429.69
2023-02-11T13:58:15.684Z,100427.02
2023-02-11T14:03:44.934Z,100424.06
2023-02-11T14:09:14.882Z,100419.70
2023-02-11T14:14:31.891Z,100421.52
2023-02-11T14:19:40.583Z,100423.81
2023-02-11T14:25:06.264Z,100429.02
2023-02-11T14:30:26.804Z,100436.52
2023-02-11T14:35:48.570Z,100435.20
2023-02-11T14:41:20.412Z,100443.40
2023-02-11T14:46:29.200Z,100448.20
2023-02-11T14:51:39.107Z,100454.27
2023-02-11T14:56:43.364Z,100456.33
2023-02-11T15:01:51.221Z,100459.61
2023-02-11T15:06:57.906Z,100463.34
2023-02-11T15:12:02.488Z,100469.02
2023-02-11T15:17:09.914Z,100473.50
2023-02-11T15:22:26.912Z,100479.41
2023-02-11T15:27:58.421Z,100486.83
2023-02-11T15:33:06.976Z,100486.63
2023-02-11T15:38:14.829Z,100480.23
2023-02-11T15:43:19.836Z,100482.80
2023-02-11T15:48:32.003Z,100480.68
2023-02-11T15:53:43.870Z,100486.73
2023-02-11T15:58:52.419Z,100493.83
2023-02-11T16:03:57.063Z,100501.09
2023-02-11T16:09:13.639Z,100501.52
2023-02-11T16:14:30.900Z,100502.72
2023-02-11T16:19:38.062Z,100502.55
2023-02-11T16:24:48.563Z,100504.11
2023-02-11T16:29:54.612Z,100507.17
2023-02-11T16:35:02.096Z,100512.35
2023-02-11T16:40:07.170Z,100515.48
2023-02-11T16:45:12.190Z,100522.92
2023-02-11T16:50:26.572Z,100531.55
2023-02-11T16:55:32.662Z,100533.86
2023-02-11T17:00:39.852Z,100535.46
2023-02-11T17:05:58.109Z,100545.09
2023-02-11T17:11:07.099Z,100555.33
2023-02-11T17:16:24.932Z,100566.21
2023-02-11T17:21:33.073Z,100569.00
2023-02-11T17:26:39.644Z,100578.34
2023-02-11T17:31:45.578Z,100584.73
2023-02-11T17:36:51.568Z,100590.86
2023-02-11T17:41:57.495Z,100597.20
2023-02-11T17:47:06.766Z,100603.04
2023-02-11T17:52:11.700Z,100611.27
2023-02-11T17:57:16.115Z,100618.81
2023-02-11T18:02:20.223Z,100625.98
2023-02-11T18:07:27.226Z,100628.65
2023-02-11T18:12:37.848Z,100635.28
2023-02-11T18:17:43.706Z,100637.88
2023-02-11T18:22:48.703Z,100640.92
2023-02-11T18:27:59.497Z,100651.73
2023-02-11T18:33:12.148Z,100649.84
2023-02-11T18:38:24.722Z,100655.22
2023-02-11T18:43:35.615Z,100656.23
2023-02-11T18:48:43.934Z,100666.25
2023-02-11T18:53:52.390Z,100667.95
2023-02-11T18:59:02.226Z,100669.89
2023-02-11T19:04:07.471Z,100673.13
2023-02-11T19:09:15.548Z,100679.05
2023-02-11T19:14:35.496Z,100679.30
2023-02-11T19:19:41.347Z,100685.02
2023-02-11T19:24:46.399Z,100695.00
2023-02-11T19:29:49.967Z,100693.66
2023-02-11T19:34:54.185Z,100697.33
2023-02-11T19:39:57.577Z,100708.63
2023-02-11T19:45:02.365Z,100718.46
2023-02-11T19:50:08.221Z,100727.10
2023-02-11T19:55:11.728Z,100737.36
2023-02-11T20:00:16.511Z,100746.21
2023-02-11T20:05:21.828Z,100755.64
2023-02-11T20:10:27.390Z,100761.77
2023-02-11T20:15:32.723Z,100769.23
2023-02-11T20:20:39.398Z,100771.15
2023-02-11T20:25:43.293Z,100777.11
2023-02-11T20:30:57.804Z,100781.30
2023-02-11T20:36:04.920Z,100789.36
2023-02-11T20:41:22.733Z,100797.38
2023-02-11T20:46:33.197Z,100802.23
2023-02-11T20:51:40.708Z,100809.11
2023-02-11T20:56:48.252Z,100826.98
2023-02-11T21:01:57.042Z,100841.64
2023-02-11T21:07:03.265Z,100855.13
2023-02-11T21:12:09.761Z,100855.63
2023-02-11T21:17:16.024Z,100863.77
2023-02-11T21:22:22.608Z,100871.73
2023-02-11T21:27:34.840Z,100877.34
2023-02-11T21:32:41.992Z,100883.62
2023-02-11T21:37:47.309Z,100894.11
2023-02-11T21:42:53.244Z,100903.35
2023-02-11T21:47:59.763Z,100904.16
2023-02-11T21:53:06.935Z,100911.33
2023-02-11T21:58:13.607Z,100920.75
2023-02-11T22:03:18.040Z,100937.63
2023-02-11T22:08:25.200Z,100949.31
2023-02-11T22:13:29.148Z,100959.71
2023-02-11T22:18:33.374Z,100963.90
2023-02-11T22:23:38.256Z,100965.81
2023-02-11T22:28:41.866Z,100982.58
2023-02-11T22:33:45.647Z,100995.32
2023-02-11T22:38:51.160Z,101013.11
2023-02-11T22:43:56.595Z,101026.79
2023-02-11T22:49:01.423Z,101035.02
2023-02-11T22:54:07.449Z,101040.58
2023-02-11T22:59:16.063Z,101040.01
2023-02-11T23:04:21.807Z,101045.45
2023-02-11T23:09:26.801Z,101052.33
2023-02-11T23:14:30.385Z,101063.48
2023-02-11T23:19:34.819Z,101068.40
2023-02-11T23:24:39.273Z,101077.59
2023-02-11T23:29:44.465Z,101086.45
2023-02-11T23:34:49.914Z,101092.84
2023-02-11T23:39:58.147Z,101104.24
2023-02-11T23:45:03.212Z,101102.05
2023-02-11T23:50:12.498Z,101109.18
2023-02-11T23:55:17.056Z,101118.08
